createdAt,value
2017-09-25T00:01:39.553Z,54.87
2017-09-25T00:04:06.864Z,53.47
2017-09-25T00:06:34.200Z,55.17
2017-09-25T00:09:01.508Z,54.77
2017-09-25T00:11:28.870Z,48.80
2017-09-25T00:13:56.203Z,53.87
2017-09-25T00:16:23.517Z,57.53
2017-09-25T00:18:50.894Z,59.13
2017-09-25T00:21:18.217Z,56.37
2017-09-25T00:23:45.569Z,57.17
2017-09-25T00:26:12.888Z,60.30
2017-09-25T00:28:40.216Z,55.73
2017-09-25T00:31:07.531Z,56.27
2017-09-25T00:33:34.863Z,60.07
2017-09-25T00:36:02.160Z,57.13
2017-09-25T00:38:29.505Z,60.43
2017-09-25T00:40:56.842Z,58.87
2017-09-25T00:43:24.196Z,59.87
2017-09-25T00:45:51.521Z,64.60
2017-09-25T00:48:18.903Z,63.03
2017-09-25T00:50:47.177Z,65.40
2017-09-25T00:53:17.562Z,57.87
2017-09-25T00:55:50.782Z,63.03
2017-09-25T00:58:18.121Z,70.20
2017-09-25T01:00:51.213Z,63.67
2017-09-25T01:03:35.305Z,66.70
2017-09-25T01:06:08.531Z,69.10
2017-09-25T01:08:35.877Z,71.00
2017-09-25T01:11:03.168Z,62.77
2017-09-25T01:13:30.464Z,72.10
2017-09-25T01:15:57.812Z,72.27
2017-09-25T01:18:25.141Z,65.97
2017-09-25T01:20:52.462Z,65.30
2017-09-25T01:23:19.953Z,65.93
2017-09-25T01:25:47.271Z,67.93
2017-09-25T01:28:14.604Z,68.00
2017-09-25T01:30:41.923Z,74.00
2017-09-25T01:33:09.230Z,75.30
2017-09-25T01:35:36.544Z,69.97
2017-09-25T01:38:03.881Z,80.37
2017-09-25T01:40:31.248Z,77.63
2017-09-25T01:42:58.549Z,85.80
2017-09-25T01:45:25.880Z,74.10
2017-09-25T01:47:53.172Z,80.03
2017-09-25T01:50:20.504Z,74.93
2017-09-25T01:52:48.146Z,71.30
2017-09-25T01:55:15.464Z,72.70
2017-09-25T01:57:43.030Z,63.90
2017-09-25T02:00:10.354Z,71.53
2017-09-25T02:02:37.677Z,61.90
2017-09-25T02:05:04.976Z,64.57
2017-09-25T02:07:32.295Z,68.40
2017-09-25T02:09:59.967Z,61.80
2017-09-25T02:12:27.285Z,70.27
2017-09-25T02:14:54.599Z,57.90
2017-09-25T02:17:21.930Z,67.80
2017-09-25T02:19:49.250Z,60.70
2017-09-25T02:22:16.621Z,62.40
2017-09-25T02:24:43.915Z,65.90
2017-09-25T02:27:11.241Z,60.60
2017-09-25T02:29:38.547Z,57.63
2017-09-25T02:32:05.860Z,57.00
2017-09-25T02:34:33.175Z,64.03
2017-09-25T02:37:00.489Z,56.90
2017-09-25T02:39:27.812Z,59.70
2017-09-25T02:41:55.176Z,61.53
2017-09-25T02:44:22.531Z,67.90
2017-09-25T02:46:50.132Z,59.53
2017-09-25T02:49:17.452Z,59.93
2017-09-25T02:51:44.744Z,60.73
2017-09-25T02:54:12.090Z,62.57
2017-09-25T02:56:39.385Z,58.27
2017-09-25T02:59:06.700Z,59.73
2017-09-25T03:01:34.010Z,58.17
2017-09-25T03:04:01.340Z,57.03
2017-09-25T03:06:28.681Z,58.27
2017-09-25T03:08:56.030Z,57.60
2017-09-25T03:11:23.361Z,57.73
2017-09-25T03:13:50.704Z,54.30
2017-09-25T03:16:18.053Z,54.33
2017-09-25T03:18:45.390Z,52.70
2017-09-25T03:21:13.008Z,60.93
2017-09-25T03:23:40.328Z,54.20
2017-09-25T03:26:07.710Z,53.00
2017-09-25T03:28:35.100Z,55.60
2017-09-25T03:31:02.393Z,53.90
2017-09-25T03:33:29.715Z,53.33
2017-09-25T03:35:57.033Z,51.27
2017-09-25T03:38:24.350Z,56.17
2017-09-25T03:40:51.663Z,58.67
2017-09-25T03:43:18.979Z,51.47
2017-09-25T03:45:46.303Z,56.20
2017-09-25T03:48:13.612Z,50.77
2017-09-25T03:50:40.938Z,56.97
2017-09-25T03:53:08.248Z,51.93
2017-09-25T03:55:35.568Z,56.23
2017-09-25T03:58:02.872Z,53.37
2017-09-25T04:00:30.207Z,55.30
2017-09-25T04:02:57.512Z,53.50
2017-09-25T04:05:24.827Z,55.70
2017-09-25T04:07:52.143Z,57.67
2017-09-25T04:10:19.451Z,53.80
2017-09-25T04:12:47.072Z,52.27
2017-09-25T04:15:14.405Z,50.77
2017-09-25T04:17:41.713Z,53.83
2017-09-25T04:20:09.030Z,56.87
2017-09-25T04:22:36.334Z,52.23
2017-09-25T04:25:05.650Z,50.93
2017-09-25T04:27:32.958Z,50.80
2017-09-25T04:30:00.301Z,51.40
2017-09-25T04:32:27.600Z,51.80
2017-09-25T04:34:54.919Z,52.30
2017-09-25T04:37:22.252Z,51.10
2017-09-25T04:39:50.488Z,50.23
2017-09-25T04:42:17.962Z,51.07
2017-09-25T04:44:45.258Z,51.77
2017-09-25T04:47:12.580Z,45.73
2017-09-25T04:49:39.876Z,50.20
2017-09-25T04:52:07.221Z,54.00
2017-09-25T04:54:34.547Z,49.67
2017-09-25T04:57:01.892Z,53.10
2017-09-25T04:59:29.232Z,53.47
2017-09-25T05:01:56.594Z,50.67
2017-09-25T05:04:23.900Z,53.93
2017-09-25T05:06:51.226Z,48.97
2017-09-25T05:09:18.544Z,56.07
2017-09-25T05:11:45.874Z,50.20
2017-09-25T05:14:13.278Z,52.90
2017-09-25T05:16:40.649Z,48.70
2017-09-25T05:19:07.986Z,54.57
2017-09-25T05:21:35.409Z,53.93
2017-09-25T05:24:02.729Z,54.30
2017-09-25T05:26:30.028Z,50.07
2017-09-25T05:28:57.380Z,54.50
2017-09-25T05:31:24.729Z,52.40
2017-09-25T05:33:52.044Z,52.57
2017-09-25T05:36:19.388Z,50.03
2017-09-25T05:38:46.756Z,52.17
2017-09-25T05:41:14.064Z,52.87
2017-09-25T05:43:41.400Z,50.20
2017-09-25T05:46:08.726Z,46.57
2017-09-25T05:48:36.085Z,52.47
2017-09-25T05:51:03.387Z,56.70
2017-09-25T05:53:30.743Z,55.33
2017-09-25T05:55:59.030Z,62.93
2017-09-25T05:58:26.356Z,65.33
2017-09-25T06:00:53.684Z,67.50
2017-09-25T06:03:21.066Z,55.97
2017-09-25T06:05:48.380Z,57.80
2017-09-25T06:08:15.717Z,56.80
2017-09-25T06:10:43.055Z,56.90
2017-09-25T06:13:11.333Z,57.60
2017-09-25T06:15:38.974Z,68.47
2017-09-25T06:18:06.318Z,60.63
2017-09-25T06:20:33.624Z,64.63
2017-09-25T06:23:00.950Z,55.67
2017-09-25T06:25:28.489Z,57.57
2017-09-25T06:27:55.893Z,59.73
2017-09-25T06:30:23.220Z,60.67
2017-09-25T06:32:50.524Z,60.30
2017-09-25T06:35:18.105Z,76.60
2017-09-25T06:37:45.429Z,65.90
2017-09-25T06:40:12.753Z,68.10
2017-09-25T06:42:40.053Z,60.40
2017-09-25T06:45:07.376Z,65.70
2017-09-25T06:47:34.706Z,66.80
2017-09-25T06:50:02.061Z,63.50
2017-09-25T06:52:29.360Z,60.53
2017-09-25T06:54:56.677Z,59.33
2017-09-25T06:57:24.073Z,66.37
2017-09-25T06:59:51.434Z,62.20
2017-09-25T07:02:18.742Z,60.83
2017-09-25T07:04:46.062Z,56.27
2017-09-25T07:07:13.436Z,64.93
2017-09-25T07:09:40.784Z,70.20
2017-09-25T07:12:08.114Z,59.83
2017-09-25T07:14:35.481Z,58.40
2017-09-25T07:17:02.801Z,62.07
2017-09-25T07:19:30.175Z,65.63
2017-09-25T07:21:57.496Z,63.67
2017-09-25T07:24:24.833Z,71.83
2017-09-25T07:26:52.177Z,71.03
2017-09-25T07:29:19.500Z,69.33
2017-09-25T07:31:46.838Z,64.70
2017-09-25T07:34:14.185Z,74.20
2017-09-25T07:36:41.517Z,73.87
2017-09-25T07:39:08.886Z,73.17
2017-09-25T07:41:36.253Z,61.53
2017-09-25T07:44:03.580Z,67.80
2017-09-25T07:46:30.901Z,69.73
2017-09-25T07:48:58.266Z,63.53
2017-09-25T07:51:25.608Z,60.53
2017-09-25T07:53:52.910Z,68.93
2017-09-25T07:56:20.270Z,66.73
2017-09-25T07:58:47.603Z,66.30
2017-09-25T08:01:14.941Z,61.80
2017-09-25T08:03:42.283Z,64.53
2017-09-25T08:06:09.634Z,61.17
2017-09-25T08:08:36.986Z,70.30
2017-09-25T08:11:04.329Z,65.60
2017-09-25T08:13:31.651Z,60.87
2017-09-25T08:15:59.020Z,61.20
2017-09-25T08:18:26.320Z,76.37
2017-09-25T08:20:53.629Z,71.70
2017-09-25T08:23:20.945Z,67.70
2017-09-25T08:25:48.556Z,68.40
2017-09-25T08:28:16.681Z,66.83
2017-09-25T08:30:43.980Z,67.57
2017-09-25T08:33:11.325Z,63.87
2017-09-25T08:35:38.645Z,57.80
2017-09-25T08:38:06.821Z,61.40
2017-09-25T08:40:34.129Z,58.47
2017-09-25T08:43:01.471Z,58.23
2017-09-25T08:45:28.769Z,62.77
2017-09-25T08:47:56.104Z,52.50
2017-09-25T08:50:23.698Z,52.90
2017-09-25T08:52:51.017Z,54.60
2017-09-25T08:55:18.326Z,56.60
2017-09-25T08:57:45.645Z,57.90
2017-09-25T09:00:12.977Z,59.40
2017-09-25T09:02:40.329Z,49.63
2017-09-25T09:05:07.653Z,51.37
2017-09-25T09:07:35.010Z,53.87
2017-09-25T09:10:02.329Z,53.57
2017-09-25T09:12:29.717Z,48.27
2017-09-25T09:14:57.013Z,46.97
2017-09-25T09:17:24.350Z,48.73
2017-09-25T09:19:51.933Z,48.90
2017-09-25T09:22:19.248Z,50.23
2017-09-25T09:24:46.592Z,47.60
2017-09-25T09:27:13.918Z,49.50
2017-09-25T09:29:41.238Z,52.13
2017-09-25T09:32:08.546Z,51.70
2017-09-25T09:34:35.874Z,50.80
2017-09-25T09:37:04.109Z,47.13
2017-09-25T09:39:31.493Z,45.93
2017-09-25T09:41:59.098Z,43.30
2017-09-25T09:44:26.449Z,45.67
2017-09-25T09:46:54.085Z,44.57
2017-09-25T09:49:21.460Z,53.53
2017-09-25T09:51:48.762Z,45.87
2017-09-25T09:54:16.085Z,45.47
2017-09-25T09:56:43.748Z,46.07
2017-09-25T09:59:11.070Z,47.47
2017-09-25T10:01:38.378Z,47.80
2017-09-25T10:04:05.705Z,51.47
2017-09-25T10:06:33.037Z,46.27
2017-09-25T10:09:00.395Z,51.90
2017-09-25T10:11:27.758Z,48.20
2017-09-25T10:13:55.082Z,44.90
2017-09-25T10:16:22.701Z,39.70
2017-09-25T10:18:50.073Z,38.50
2017-09-25T10:21:17.365Z,43.00
2017-09-25T10:23:44.665Z,40.33
2017-09-25T10:26:11.994Z,43.50
2017-09-25T10:28:39.305Z,37.47
2017-09-25T10:31:06.666Z,37.77
2017-09-25T10:33:33.992Z,38.97
2017-09-25T10:36:01.460Z,37.70
2017-09-25T10:38:28.780Z,36.50
2017-09-25T10:40:56.155Z,35.40
2017-09-25T10:43:23.469Z,35.37
2017-09-25T10:45:50.797Z,37.63
2017-09-25T10:48:18.465Z,35.13
2017-09-25T10:50:45.797Z,31.10
2017-09-25T10:53:13.121Z,39.23
2017-09-25T10:55:40.477Z,32.87
2017-09-25T10:58:07.816Z,40.13
2017-09-25T11:00:35.156Z,36.00
2017-09-25T11:03:02.498Z,40.40
2017-09-25T11:05:29.841Z,44.63
2017-09-25T11:07:57.161Z,44.30
2017-09-25T11:10:24.833Z,46.93
2017-09-25T11:12:52.136Z,47.20
2017-09-25T11:15:19.478Z,53.50
2017-09-25T11:17:46.789Z,49.93
2017-09-25T11:20:14.121Z,53.73
2017-09-25T11:22:41.637Z,51.60
2017-09-25T11:25:08.975Z,47.43
2017-09-25T11:27:36.349Z,53.23
2017-09-25T11:30:03.882Z,42.93
2017-09-25T11:32:31.309Z,43.10
2017-09-25T11:34:58.625Z,41.60
2017-09-25T11:37:25.954Z,43.30
2017-09-25T11:39:53.265Z,40.57
2017-09-25T11:42:20.601Z,41.13
2017-09-25T11:44:47.909Z,33.13
2017-09-25T11:47:15.244Z,36.50
2017-09-25T11:49:42.592Z,35.47
2017-09-25T11:52:09.942Z,40.43
2017-09-25T11:54:37.284Z,32.43
2017-09-25T11:57:04.758Z,34.00
2017-09-25T11:59:32.071Z,31.53
2017-09-25T12:01:59.428Z,36.23
2017-09-25T12:04:26.729Z,36.50
2017-09-25T12:06:54.050Z,32.20
2017-09-25T12:09:21.350Z,34.80
2017-09-25T12:11:48.664Z,42.33
2017-09-25T12:14:15.994Z,36.50
2017-09-25T12:16:43.314Z,34.53
2017-09-25T12:19:10.646Z,36.40
2017-09-25T12:21:37.986Z,34.00
2017-09-25T12:24:05.311Z,30.93
2017-09-25T12:26:32.632Z,32.30
2017-09-25T12:28:59.966Z,30.70
2017-09-25T12:31:27.298Z,25.90
2017-09-25T12:33:54.660Z,30.73
2017-09-25T12:36:22.029Z,23.40
2017-09-25T12:38:49.372Z,23.57
2017-09-25T12:41:16.682Z,23.73
2017-09-25T12:43:44.000Z,25.53
2017-09-25T12:46:11.356Z,24.03
2017-09-25T12:48:38.701Z,23.50
2017-09-25T12:51:06.043Z,21.77
2017-09-25T12:53:33.368Z,24.30
2017-09-25T12:56:00.712Z,27.90
2017-09-25T12:58:28.022Z,24.93
2017-09-25T13:00:55.378Z,28.17
2017-09-25T13:03:22.649Z,26.00
2017-09-25T13:05:49.973Z,26.43
2017-09-25T13:08:17.306Z,25.63
2017-09-25T13:10:44.628Z,23.67
2017-09-25T13:13:11.929Z,25.50
2017-09-25T13:15:39.257Z,28.57
2017-09-25T13:18:06.888Z,26.23
2017-09-25T13:20:34.227Z,24.70
2017-09-25T13:23:01.580Z,26.00
2017-09-25T13:25:28.929Z,32.50
2017-09-25T13:27:56.245Z,29.63
2017-09-25T13:30:23.573Z,27.43
2017-09-25T13:32:51.229Z,24.80
2017-09-25T13:35:18.675Z,30.27
2017-09-25T13:37:46.045Z,28.63
2017-09-25T13:40:13.369Z,31.30
2017-09-25T13:42:40.702Z,29.07
2017-09-25T13:45:08.033Z,29.80
2017-09-25T13:47:35.381Z,28.93
2017-09-25T13:50:02.709Z,26.30
2017-09-25T13:52:30.073Z,27.07
2017-09-25T13:54:57.392Z,27.80
2017-09-25T13:57:24.757Z,27.63
2017-09-25T14:02:24.862Z,24.40
2017-09-25T14:04:52.192Z,27.00
2017-09-25T14:07:19.541Z,27.23
2017-09-25T14:09:46.860Z,25.27
2017-09-25T14:12:14.193Z,24.47
2017-09-25T14:14:41.526Z,24.33
2017-09-25T14:17:08.822Z,30.67
2017-09-25T14:19:36.161Z,26.90
2017-09-25T14:22:03.574Z,25.60
2017-09-25T14:24:30.942Z,25.20
2017-09-25T14:26:58.268Z,25.00
2017-09-25T14:29:25.674Z,26.73
2017-09-25T14:31:52.982Z,23.57
2017-09-25T14:34:20.313Z,22.63
2017-09-25T14:36:47.657Z,22.33
2017-09-25T14:39:14.992Z,21.77
2017-09-25T14:41:42.294Z,22.67
2017-09-25T14:44:09.606Z,22.80
2017-09-25T14:46:36.946Z,21.60
2017-09-25T14:49:04.241Z,20.70
2017-09-25T14:51:31.621Z,23.67
2017-09-25T14:53:58.928Z,19.90
2017-09-25T14:56:26.373Z,20.97
2017-09-25T14:58:53.697Z,23.03
2017-09-25T15:01:21.853Z,22.97
2017-09-25T15:03:49.197Z,24.20
2017-09-25T15:06:16.521Z,21.57
2017-09-25T15:08:44.150Z,22.17
2017-09-25T15:11:11.507Z,19.10
2017-09-25T15:13:39.812Z,21.10
2017-09-25T15:16:07.165Z,20.90
2017-09-25T15:18:34.475Z,23.33
2017-09-25T15:21:01.786Z,22.50
2017-09-25T15:23:29.100Z,19.03
2017-09-25T15:25:56.491Z,17.77
2017-09-25T15:28:23.869Z,16.70
2017-09-25T15:30:51.189Z,21.43
2017-09-25T15:33:18.550Z,19.37
2017-09-25T15:35:46.049Z,20.47
2017-09-25T15:38:13.390Z,20.40
2017-09-25T15:40:40.746Z,20.13
2017-09-25T15:43:08.118Z,18.93
2017-09-25T15:45:36.367Z,16.30
2017-09-25T15:48:03.724Z,18.17
2017-09-25T15:50:31.029Z,18.90
2017-09-25T15:52:58.354Z,18.67
2017-09-25T15:55:25.656Z,23.77
2017-09-25T15:57:53.001Z,19.00
2017-09-25T16:00:20.338Z,18.10
2017-09-25T16:02:47.713Z,16.97
2017-09-25T16:05:15.624Z,18.00
2017-09-25T16:07:42.938Z,19.60
2017-09-25T16:10:10.289Z,16.93
2017-09-25T16:12:37.614Z,17.93
2017-09-25T16:15:04.928Z,18.27
2017-09-25T16:17:32.244Z,20.37
2017-09-25T16:19:59.592Z,22.83
2017-09-25T16:22:26.910Z,19.20
2017-09-25T16:24:54.224Z,24.67
2017-09-25T16:27:21.585Z,20.60
2017-09-25T16:29:48.981Z,20.83
2017-09-25T16:32:16.277Z,19.60
2017-09-25T16:34:43.584Z,24.00
2017-09-25T16:37:10.940Z,21.73
2017-09-25T16:39:38.269Z,23.73
2017-09-25T16:42:05.616Z,21.40
2017-09-25T16:44:32.978Z,21.00
2017-09-25T16:47:00.327Z,21.40
2017-09-25T16:49:27.633Z,24.60
2017-09-25T16:51:54.981Z,21.93
2017-09-25T16:54:22.324Z,19.93
2017-09-25T16:56:49.666Z,21.83
2017-09-25T16:59:16.990Z,21.70
2017-09-25T17:01:44.653Z,22.27
2017-09-25T17:04:11.992Z,21.67
2017-09-25T17:06:40.341Z,25.23
2017-09-25T17:09:07.641Z,24.10
2017-09-25T17:11:34.956Z,23.60
2017-09-25T17:14:02.283Z,22.80
2017-09-25T17:16:29.616Z,30.03
2017-09-25T17:18:56.970Z,22.93
2017-09-25T17:21:24.329Z,22.90
2017-09-25T17:23:51.633Z,23.03
2017-09-25T17:26:18.968Z,24.50
2017-09-25T17:28:46.285Z,25.27
2017-09-25T17:31:13.608Z,24.47
2017-09-25T17:33:40.930Z,25.23
2017-09-25T17:36:08.272Z,27.87
2017-09-25T17:38:35.688Z,31.87
2017-09-25T17:41:02.980Z,29.30
2017-09-25T17:43:30.373Z,26.50
2017-09-25T17:45:57.752Z,26.87
2017-09-25T17:48:25.106Z,29.70
2017-09-25T17:50:52.403Z,28.67
2017-09-25T17:53:19.769Z,29.97
2017-09-25T17:55:47.569Z,27.23
2017-09-25T17:58:14.893Z,27.70
2017-09-25T18:00:42.205Z,29.07
2017-09-25T18:03:09.504Z,27.80
2017-09-25T18:05:36.905Z,29.00
2017-09-25T18:08:04.238Z,26.23
2017-09-25T18:10:31.649Z,27.30
2017-09-25T18:12:58.960Z,32.10
2017-09-25T18:15:26.473Z,31.90
2017-09-25T18:17:54.725Z,29.07
2017-09-25T18:20:22.052Z,30.73
2017-09-25T18:22:49.670Z,27.20
2017-09-25T18:25:17.140Z,26.77
2017-09-25T18:27:44.445Z,29.03
2017-09-25T18:30:11.820Z,29.10
2017-09-25T18:32:39.161Z,29.20
2017-09-25T18:35:06.526Z,29.90
2017-09-25T18:37:33.849Z,33.70
2017-09-25T18:40:01.186Z,33.70
2017-09-25T18:42:28.592Z,28.43
2017-09-25T18:44:55.911Z,29.20
2017-09-25T18:47:23.334Z,30.20
2017-09-25T18:49:50.662Z,32.93
2017-09-25T18:52:18.017Z,27.90
2017-09-25T18:54:45.341Z,29.07
2017-09-25T18:57:12.693Z,27.10
2017-09-25T18:59:40.029Z,25.10
2017-09-25T19:02:07.369Z,31.80
2017-09-25T19:04:34.685Z,30.70
2017-09-25T19:07:02.005Z,25.67
2017-09-25T19:09:29.333Z,27.83
2017-09-25T19:11:56.644Z,28.50
2017-09-25T19:14:23.969Z,29.00
2017-09-25T19:16:51.338Z,28.93
2017-09-25T19:19:18.754Z,27.70
2017-09-25T19:21:46.077Z,31.67
2017-09-25T19:24:13.429Z,29.20
2017-09-25T19:26:40.769Z,28.87
2017-09-25T19:29:08.097Z,29.23
2017-09-25T19:31:35.432Z,29.93
2017-09-25T19:34:02.843Z,31.67
2017-09-25T19:36:30.196Z,28.27
2017-09-25T19:38:57.500Z,33.13
2017-09-25T19:41:24.834Z,28.90
2017-09-25T19:43:52.143Z,32.97
2017-09-25T19:46:19.480Z,30.70
2017-09-25T19:49:07.574Z,32.47
2017-09-25T19:51:34.893Z,27.93
2017-09-25T19:54:02.797Z,32.07
2017-09-25T19:56:35.928Z,29.30
2017-09-25T19:59:03.268Z,28.10
2017-09-25T20:01:30.628Z,33.60
2017-09-25T20:03:57.969Z,33.20
2017-09-25T20:06:25.479Z,27.70
2017-09-25T20:08:52.776Z,30.77
2017-09-25T20:11:20.893Z,31.50
2017-09-25T20:13:50.814Z,32.77
2017-09-25T20:16:21.829Z,30.10
2017-09-25T20:18:49.225Z,32.00
2017-09-25T20:21:16.537Z,33.40
2017-09-25T20:23:43.836Z,30.93
2017-09-25T20:26:11.153Z,32.00
2017-09-25T20:28:38.495Z,29.83
2017-09-25T20:31:05.801Z,34.63
2017-09-25T20:33:33.129Z,31.47
2017-09-25T20:36:00.446Z,30.20
2017-09-25T20:38:27.768Z,33.67
2017-09-25T20:41:04.994Z,41.50
2017-09-25T20:43:36.940Z,31.63
2017-09-25T20:46:04.306Z,34.07
2017-09-25T20:48:31.653Z,32.27
2017-09-25T20:50:58.975Z,31.43
2017-09-25T20:53:26.313Z,32.37
2017-09-25T20:55:53.621Z,30.63
2017-09-25T20:58:21.929Z,32.27
2017-09-25T21:00:49.283Z,31.07
2017-09-25T21:03:16.613Z,32.23
2017-09-25T21:05:43.961Z,29.77
2017-09-25T21:08:11.297Z,32.20
2017-09-25T21:10:38.652Z,30.50
2017-09-25T21:13:05.960Z,29.77
2017-09-25T21:15:33.284Z,28.33
2017-09-25T21:18:00.588Z,30.40
2017-09-25T21:20:27.905Z,30.70
2017-09-25T21:22:55.225Z,35.30
2017-09-25T21:25:22.616Z,30.67
2017-09-25T21:27:49.916Z,34.87
2017-09-25T21:30:17.254Z,28.53
2017-09-25T21:32:44.718Z,31.60
2017-09-25T21:35:12.027Z,30.20
2017-09-25T21:37:39.351Z,30.80
2017-09-25T21:40:06.652Z,30.10
2017-09-25T21:42:33.997Z,27.70
2017-09-25T21:45:01.309Z,33.80
2017-09-25T21:47:28.666Z,29.20
2017-09-25T21:49:55.992Z,30.80
2017-09-25T21:52:23.332Z,29.77
2017-09-25T21:54:50.990Z,30.37
2017-09-25T21:57:18.349Z,29.63
2017-09-25T21:59:45.657Z,26.50
2017-09-25T22:02:12.962Z,30.33
2017-09-25T22:04:40.284Z,30.47
2017-09-25T22:07:07.593Z,29.27
2017-09-25T22:09:34.933Z,28.73
2017-09-25T22:12:02.256Z,29.03
2017-09-25T22:14:29.621Z,31.53
2017-09-25T22:16:56.941Z,29.50
2017-09-25T22:19:24.293Z,29.70
2017-09-25T22:21:51.601Z,33.23
2017-09-25T22:24:18.924Z,31.57
2017-09-25T22:26:47.234Z,29.27
2017-09-25T22:29:14.583Z,34.23
2017-09-25T22:31:41.937Z,33.20
2017-09-25T22:34:09.256Z,31.70
2017-09-25T22:36:36.624Z,32.43
2017-09-25T22:39:03.940Z,32.97
2017-09-25T22:41:31.340Z,30.80
2017-09-25T22:43:59.272Z,36.13
2017-09-25T22:46:26.601Z,31.10
2017-09-25T22:48:53.929Z,30.20
2017-09-25T22:51:21.269Z,36.73
2017-09-25T22:53:48.588Z,38.23
2017-09-25T22:56:15.939Z,33.47
2017-09-25T22:58:43.241Z,33.60
2017-09-25T23:01:10.554Z,35.00
2017-09-25T23:03:55.693Z,32.97
2017-09-25T23:06:23.312Z,33.73
2017-09-25T23:08:50.628Z,33.37
2017-09-25T23:11:18.562Z,38.67
2017-09-25T23:13:45.885Z,38.77
2017-09-25T23:16:13.202Z,37.73
2017-09-25T23:18:40.518Z,37.87
2017-09-25T23:21:07.817Z,36.53
2017-09-25T23:23:35.152Z,47.13
2017-09-25T23:26:03.385Z,47.83
2017-09-25T23:28:30.700Z,36.33
2017-09-25T23:31:02.720Z,39.30
2017-09-25T23:33:30.044Z,44.10
2017-09-25T23:35:57.349Z,38.20
2017-09-25T23:38:24.669Z,39.83
2017-09-25T23:40:51.968Z,37.77
2017-09-25T23:43:19.489Z,38.30
2017-09-25T23:45:46.832Z,36.40
2017-09-25T23:48:14.184Z,36.07
2017-09-25T23:50:41.485Z,36.43
2017-09-25T23:53:08.785Z,41.47
2017-09-25T23:55:36.104Z,38.73
2017-09-25T23:58:03.417Z,40.20
